Terminal Aerodrome Forecast
Issued by NWS

Home | Current Version | Previous Version | Text Only | Print | Product List | Glossary On
Versions: 1 2 3 4 5 6 7 8 9 10 11 12 13 14 15 16 17
000
FTUS45 KABQ 180500
TAFLVS
TAF
KLVS 180528Z 1806/1906 36005KT P6SM SKC
     FM181900 15010G20KT P6SM SCT080
     FM182200 12010G20KT P6SM VCSH BKN050
     FM190100 15010KT P6SM SCT025 OVC040
     FM190500 21010KT P6SM VCFG SCT007 OVC040=

USA.gov is the U.S. government's official web portal to all federal, state and local government web resources and services.